Time;durP1;ratioP1;P1;durP2;ratioP2;P2;SDS_P1;SDS_P2;PMS_P1;PMS_P2;Temp;Humidity;BMP_temperature;BMP_pressure;BME280_temperature;BME280_humidity;BME280_pressure;Samples;Min_cycle;Max_cycle;Signal;HPM_P1;HPM_P2
2021/03/23 00:01:23;;;;;;;0.20;0.20;;;;;;;2.51;86.11;98275.75;5030695;28;20061;-91
2021/03/23 00:03:51;;;;;;;1.15;1.15;;;;;;;2.24;85.86;98235.28;5029818;28;20099;-91
2021/03/23 00:06:28;;;;;;;4.18;0.63;;;;;;;2.42;87.04;98274.19;5013281;28;20077;-90
2021/03/23 00:09:02;;;;;;;0.37;0.37;;;;;;;2.05;86.88;98216.63;5014639;28;20105;-90
2021/03/23 00:11:33;;;;;;;0.20;0.20;;;;;;;2.20;87.63;98233.75;5013295;28;20026;-90
2021/03/23 00:14:01;;;;;;;0.20;0.20;;;;;;;2.02;87.04;98198.34;5013824;28;20041;-90
2021/03/23 00:16:30;;;;;;;0.20;0.20;;;;;;;2.41;86.88;98269.91;5029718;28;20054;-91
2021/03/23 00:18:56;;;;;;;0.30;0.30;;;;;;;2.36;86.92;98275.75;5029710;28;20422;-91
2021/03/23 00:21:23;;;;;;;0.20;0.20;;;;;;;2.27;86.27;98269.16;5029444;28;20026;-91
2021/03/23 00:23:49;;;;;;;0.30;0.30;;;;;;;2.34;86.82;98274.63;5012953;28;20034;-90
2021/03/23 00:26:17;;;;;;;0.20;0.20;;;;;;;2.38;86.20;98273.44;5029570;28;20095;-89
2021/03/23 00:28:47;;;;;;;0.20;0.20;;;;;;;2.27;86.59;98271.91;5029306;28;20021;-90
2021/03/23 00:31:14;;;;;;;0.25;0.25;;;;;;;1.99;87.29;98248.16;5012703;28;20116;-89
2021/03/23 00:33:39;;;;;;;0.98;0.98;;;;;;;2.15;87.91;98275.03;5029066;28;20034;-90
2021/03/23 00:36:05;;;;;;;0.20;0.20;;;;;;;2.18;87.93;98293.31;5029285;28;20041;-90
2021/03/23 00:38:34;;;;;;;0.40;0.40;;;;;;;1.82;87.67;98235.34;5029104;28;20026;-89
2021/03/23 00:41:00;;;;;;;0.20;0.20;;;;;;;2.15;87.54;98296.81;5013199;28;20033;-90
2021/03/23 00:43:26;;;;;;;0.30;0.30;;;;;;;1.95;88.53;98266.47;5029332;28;20041;-91
2021/03/23 00:45:51;;;;;;;0.20;0.20;;;;;;;2.02;88.10;98285.53;5028188;28;20026;-89
2021/03/23 00:48:19;;;;;;;0.20;0.20;;;;;;;2.20;87.54;98305.38;5028896;28;20026;-90
2021/03/23 00:50:50;;;;;;;0.37;0.37;;;;;;;1.76;87.63;98240.38;5012750;28;20117;-91
2021/03/23 00:53:16;;;;;;;0.30;0.30;;;;;;;2.13;88.65;98299.94;5013566;28;20464;-91
2021/03/23 00:55:42;;;;;;;0.30;0.30;;;;;;;2.24;89.39;98300.69;5029458;28;20125;-89
2021/03/23 00:58:07;;;;;;;0.20;0.20;;;;;;;2.17;89.97;98295.25;5012763;28;20474;-91
2021/03/23 01:00:34;;;;;;;0.40;0.40;;;;;;;2.08;90.52;98302.28;5013271;28;20033;-90
2021/03/23 01:03:00;;;;;;;0.75;0.75;;;;;;;2.10;90.50;98289.81;5012654;28;20033;-92
2021/03/23 01:05:28;;;;;;;0.30;0.30;;;;;;;2.16;90.75;98288.25;5012207;28;20050;-93
2021/03/23 01:07:54;;;;;;;0.20;0.20;;;;;;;2.14;90.71;98290.59;5012393;28;20025;-91
2021/03/23 01:10:22;;;;;;;0.20;0.20;;;;;;;1.93;90.09;98261.41;5028825;28;20120;-92
2021/03/23 01:12:48;;;;;;;1.17;1.10;;;;;;;2.20;90.02;98299.94;5012380;28;20022;-93
2021/03/23 01:15:18;;;;;;;0.40;0.40;;;;;;;2.19;89.23;98311.22;5028902;28;20095;-92
2021/03/23 01:17:43;;;;;;;0.30;0.30;;;;;;;1.95;88.76;98271.91;5028744;28;20037;-92
2021/03/23 01:20:11;;;;;;;0.30;0.30;;;;;;;2.08;88.24;98307.72;5012347;28;20030;-91
2021/03/23 01:22:37;;;;;;;0.55;0.55;;;;;;;2.22;87.77;98310.44;5012358;28;20033;-91
2021/03/23 01:25:04;;;;;;;1.00;0.68;;;;;;;2.18;87.81;98313.16;5028685;28;20091;-92
2021/03/23 01:27:30;;;;;;;0.20;0.20;;;;;;;2.12;88.48;98306.53;5028716;28;20030;-91
2021/03/23 01:29:55;;;;;;;0.30;0.30;;;;;;;2.04;89.05;98277.75;5028933;28;20034;-91
2021/03/23 01:32:20;;;;;;;0.20;0.20;;;;;;;2.19;88.87;98313.94;5028805;28;20057;-92
2021/03/23 01:34:47;;;;;;;0.30;0.30;;;;;;;2.19;88.62;98317.44;5028714;28;20038;-91
2021/03/23 01:37:13;;;;;;;0.98;0.98;;;;;;;2.15;88.33;98302.28;5028889;28;20026;-93
2021/03/23 01:39:39;;;;;;;0.20;0.20;;;;;;;1.93;88.51;98274.25;5028658;28;20029;-93
2021/03/23 01:42:06;;;;;;;0.60;0.60;;;;;;;2.24;88.14;98322.50;5012078;28;20116;-92
2021/03/23 01:44:32;;;;;;;1.10;1.00;;;;;;;2.05;87.23;98292.91;5028606;28;20088;-91
2021/03/23 01:46:57;;;;;;;0.88;0.88;;;;;;;2.19;86.10;98324.84;5011889;28;20034;-90
2021/03/23 01:49:35;;;;;;;0.77;0.73;;;;;;;2.36;88.09;98333.00;5028364;28;20034;-90
2021/03/23 01:52:11;;;;;;;;;;;;;;;2.33;87.62;98333.03;5029214;28;20514;-90
2021/03/23 01:54:50;;;;;;;0.93;0.93;;;;;;;2.27;88.31;98313.56;5012297;28;19996;-90
2021/03/23 01:57:16;;;;;;;;;;;;;;;2.36;88.68;98335.72;5012978;28;20054;-91
2021/03/23 01:59:50;;;;;;;0.30;0.30;;;;;;;1.99;88.86;98283.56;5011668;28;19910;-88
2021/03/23 02:02:15;;;;;;;0.30;0.30;;;;;;;2.29;89.36;98330.28;5012700;28;20022;-87
2021/03/23 02:04:41;;;;;;;0.40;0.40;;;;;;;2.29;89.33;98318.63;5028059;28;20084;-87
2021/03/23 02:07:06;;;;;;;0.20;0.20;;;;;;;2.46;89.74;98358.72;5011808;28;20053;-88
2021/03/23 02:09:34;;;;;;;1.60;1.50;;;;;;;2.38;90.14;98349.75;5028170;28;20030;-87
2021/03/23 02:12:06;;;;;;;0.20;0.20;;;;;;;2.23;90.24;98312.75;5028072;28;20122;-89
2021/03/23 02:14:34;;;;;;;0.20;0.20;;;;;;;1.97;91.06;98285.94;5028863;28;20034;-88
2021/03/23 02:17:34;;;;;;;0.20;0.20;;;;;;;2.47;90.84;98349.38;5012203;28;20121;-89
2021/03/23 02:20:17;;;;;;;0.20;0.20;;;;;;;2.56;89.57;98357.16;4996609;28;20540;-89
2021/03/23 02:22:48;;;;;;;0.68;0.68;;;;;;;2.18;90.19;98299.53;5030024;28;20037;-89
2021/03/23 02:25:16;;;;;;;0.40;0.40;;;;;;;2.39;89.86;98315.88;5015818;28;20026;-91
2021/03/23 02:27:43;;;;;;;0.20;0.20;;;;;;;2.37;89.83;98320.94;5031644;28;20030;-90
2021/03/23 02:30:19;;;;;;;0.30;0.30;;;;;;;2.38;90.55;98355.22;5031601;28;20037;-91
2021/03/23 02:32:45;;;;;;;0.30;0.30;;;;;;;2.49;90.69;98368.84;5015791;28;20022;-88
2021/03/23 02:35:11;;;;;;;0.20;0.20;;;;;;;2.24;91.27;98338.84;5031479;28;20500;-89
2021/03/23 02:37:36;;;;;;;0.20;0.20;;;;;;;2.47;91.48;98375.88;5031389;28;20030;-89
2021/03/23 02:40:04;;;;;;;0.20;0.20;;;;;;;1.81;91.82;98275.41;5032187;28;20042;-91
2021/03/23 02:42:29;;;;;;;0.20;0.20;;;;;;;2.25;92.28;98351.31;5031341;28;20041;-91
2021/03/23 02:44:55;;;;;;;0.20;0.20;;;;;;;2.49;92.13;98376.22;5031937;28;20041;-89
2021/03/23 02:47:20;;;;;;;0.20;0.20;;;;;;;2.40;92.43;98396.50;5031201;28;20500;-90
2021/03/23 02:49:46;;;;;;;0.20;0.20;;;;;;;2.11;93.41;98364.94;5032198;28;20034;-91
2021/03/23 02:52:12;;;;;;;0.20;0.20;;;;;;;2.07;93.64;98377.00;5031841;28;20429;-90
2021/03/23 02:54:39;;;;;;;1.30;0.75;;;;;;;2.01;94.23;98363.75;5015044;28;20038;-90
2021/03/23 02:57:06;;;;;;;0.20;0.20;;;;;;;2.08;94.79;98367.66;5014681;28;20498;-90
2021/03/23 02:59:31;;;;;;;0.98;0.77;;;;;;;2.05;94.99;98380.09;5014563;28;20033;-91
2021/03/23 03:01:57;;;;;;;0.88;0.85;;;;;;;1.99;95.80;98389.81;5031269;28;20030;-91
2021/03/23 03:04:22;;;;;;;0.40;0.40;;;;;;;1.84;97.31;98391.75;5031252;28;20037;-91
2021/03/23 03:06:48;;;;;;;0.30;0.30;;;;;;;1.86;98.12;98381.28;5030625;28;20061;-90
2021/03/23 03:09:13;;;;;;;0.20;0.20;;;;;;;1.84;98.11;98380.09;5030882;28;20041;-93
2021/03/23 03:11:39;;;;;;;0.30;0.30;;;;;;;1.57;98.65;98350.44;5030631;28;20049;-92
2021/03/23 03:14:05;;;;;;;0.22;0.22;;;;;;;1.64;99.10;98358.63;5030908;28;20041;-91
2021/03/23 03:16:31;;;;;;;0.30;0.30;;;;;;;1.80;99.24;98380.09;5014566;28;20034;-91
2021/03/23 03:18:56;;;;;;;0.20;0.20;;;;;;;1.94;99.11;98404.63;5014781;28;20030;-92
2021/03/23 03:21:22;;;;;;;0.20;0.20;;;;;;;1.91;99.09;98412.78;5030817;28;20474;-91
2021/03/23 03:23:47;;;;;;;0.30;0.30;;;;;;;1.80;99.25;98401.09;5030713;28;20026;-90
2021/03/23 03:26:13;;;;;;;0.40;0.40;;;;;;;1.38;100.00;98348.06;5031509;28;20038;-92
2021/03/23 03:28:39;;;;;;;0.50;0.50;;;;;;;1.61;100.00;98399.47;5014411;28;20026;-91
2021/03/23 03:31:05;;;;;;;0.30;0.30;;;;;;;1.57;100.00;98380.41;5030556;28;20107;-92
2021/03/23 03:33:30;;;;;;;0.20;0.20;;;;;;;1.32;100.00;98357.00;5012929;28;20105;-90
2021/03/23 03:35:56;;;;;;;0.20;0.20;;;;;;;1.34;100.00;98358.16;5015033;28;20038;-89
2021/03/23 03:38:25;;;;;;;0.40;0.40;;;;;;;1.56;100.00;98408.81;5014531;28;20026;-90
2021/03/23 03:40:58;;;;;;;0.20;0.20;;;;;;;0.87;100.00;98317.53;5030174;28;20038;-91
2021/03/23 03:43:31;;;;;;;0.38;0.38;;;;;;;1.44;100.00;98413.81;5013837;28;20032;-90
2021/03/23 03:45:56;;;;;;;0.50;0.50;;;;;;;1.54;100.00;98410.34;5014117;28;20053;-88
2021/03/23 03:48:22;;;;;;;1.35;0.75;;;;;;;1.41;100.00;98400.94;5030661;28;20064;-88
2021/03/23 03:50:48;;;;;;;0.30;0.30;;;;;;;1.47;100.00;98438.31;5030226;28;20491;-91
2021/03/23 03:53:14;;;;;;;0.20;0.20;;;;;;;1.18;100.00;98396.59;5030158;28;20557;-88
2021/03/23 03:55:43;;;;;;;0.60;0.60;;;;;;;1.22;100.00;98391.94;5029761;28;20476;-89
2021/03/23 03:58:09;;;;;;;0.38;0.38;;;;;;;1.41;100.00;98423.50;5029940;28;20025;-91
2021/03/23 04:00:36;;;;;;;0.60;0.60;;;;;;;1.48;100.00;98420.03;5029909;28;20041;-91
2021/03/23 04:03:05;;;;;;;0.38;0.38;;;;;;;1.20;100.00;98379.88;5013548;28;20080;-91
2021/03/23 04:05:36;;;;;;;0.20;0.20;;;;;;;1.21;100.00;98386.84;5029591;28;20165;-93
2021/03/23 04:08:04;;;;;;;0.20;0.20;;;;;;;1.50;100.00;98415.78;5013921;28;20025;-93
2021/03/23 04:10:30;;;;;;;0.30;0.30;;;;;;;1.60;100.00;98446.91;5030280;28;20034;-94
2021/03/23 04:12:56;;;;;;;0.20;0.20;;;;;;;1.42;100.00;98419.63;5029824;28;20061;-94
2021/03/23 04:15:33;;;;;;;0.70;0.70;;;;;;;1.00;100.00;98360.34;5014619;28;20030;-92
2021/03/23 04:17:58;;;;;;;0.30;0.30;;;;;;;1.30;100.00;98411.78;5012948;28;20253;-91
2021/03/23 04:20:24;;;;;;;0.30;0.30;;;;;;;1.26;100.00;98430.06;5029687;28;20145;-91
2021/03/23 04:22:51;;;;;;;0.20;0.20;;;;;;;1.04;100.00;98382.13;5029659;28;20025;-93
2021/03/23 04:25:19;;;;;;;0.30;0.30;;;;;;;1.06;100.00;98379.81;5013155;28;20026;-93
2021/03/23 04:27:45;;;;;;;0.30;0.30;;;;;;;1.42;100.00;98441.41;5030124;28;20041;-92
2021/03/23 04:30:11;;;;;;;0.22;0.22;;;;;;;1.22;100.00;98424.56;5013712;28;20041;-90
2021/03/23 04:32:38;;;;;;;0.30;0.30;;;;;;;1.16;100.00;98406.28;5029402;28;20092;-90
2021/03/23 04:35:06;;;;;;;0.30;0.30;;;;;;;1.13;100.00;98405.13;5029678;28;20521;-89
2021/03/23 04:37:33;;;;;;;;;;;;;;;1.39;100.00;98446.81;5013277;28;20029;-89
2021/03/23 04:40:00;;;;;;;0.22;0.22;;;;;;;1.31;100.00;98439.78;5013124;28;19915;-90
2021/03/23 04:42:26;;;;;;;0.20;0.20;;;;;;;1.45;100.00;98446.06;5029894;28;20113;-89
2021/03/23 04:44:51;;;;;;;0.22;0.22;;;;;;;1.58;100.00;98450.03;5012553;28;20512;-90
2021/03/23 04:47:17;;;;;;;0.43;0.43;;;;;;;1.64;100.00;98459.38;5029320;28;20040;-89
2021/03/23 04:49:42;;;;;;;0.20;0.20;;;;;;;1.68;100.00;98453.19;5029091;28;20065;-90
2021/03/23 04:52:08;;;;;;;1.15;0.82;;;;;;;1.82;100.00;98456.72;5029376;28;20033;-90
2021/03/23 04:54:33;;;;;;;0.60;0.60;;;;;;;1.79;100.00;98459.44;5029275;28;20041;-89
2021/03/23 04:56:59;;;;;;;0.30;0.30;;;;;;;1.77;100.00;98461.75;5029133;28;20034;-90
2021/03/23 04:59:24;;;;;;;0.35;0.35;;;;;;;1.77;100.00;98450.88;5029238;28;20053;-90
2021/03/23 05:01:50;;;;;;;0.65;0.65;;;;;;;1.77;100.00;98435.31;5029664;28;20030;-90
2021/03/23 05:04:17;;;;;;;0.45;0.35;;;;;;;2.05;100.00;98459.13;5012432;28;20038;-90
2021/03/23 05:06:43;;;;;;;0.20;0.20;;;;;;;1.90;100.00;98443.91;5012324;28;20062;-91
2021/03/23 05:09:09;;;;;;;0.20;0.20;;;;;;;2.01;100.00;98470.03;5028850;28;20038;-91
2021/03/23 05:11:35;;;;;;;0.30;0.30;;;;;;;2.18;100.00;98465.00;5012370;28;20383;-90
2021/03/23 05:14:02;;;;;;;0.20;0.20;;;;;;;1.98;100.00;98429.94;5012062;28;20032;-91
2021/03/23 05:16:28;;;;;;;0.30;0.30;;;;;;;1.97;99.83;98450.16;5012841;28;20022;-93
2021/03/23 05:18:54;;;;;;;0.30;0.30;;;;;;;2.17;100.00;98487.97;5012308;28;20041;-92
2021/03/23 05:21:20;;;;;;;0.20;0.20;;;;;;;1.44;100.00;98390.09;5028663;28;20026;-92
2021/03/23 05:23:46;;;;;;;0.57;0.57;;;;;;;1.82;100.00;98458.66;5012277;28;20115;-93
2021/03/23 05:26:11;;;;;;;0.45;0.45;;;;;;;1.92;100.00;98485.19;5028752;28;20030;-90
2021/03/23 05:28:37;;;;;;;1.17;1.13;;;;;;;2.01;100.00;98480.13;5029358;28;20140;-92
2021/03/23 05:31:05;;;;;;;0.20;0.20;;;;;;;2.00;100.00;98489.47;5028692;28;20026;-92
2021/03/23 05:33:31;;;;;;;0.20;0.20;;;;;;;1.88;100.00;98440.78;5028555;28;20486;-91
2021/03/23 05:35:58;;;;;;;0.75;0.75;;;;;;;1.89;100.00;98442.34;5028801;28;20041;-90
2021/03/23 05:38:29;;;;;;;0.20;0.20;;;;;;;2.30;100.00;98487.22;5028503;28;20022;-91
2021/03/23 05:41:04;;;;;;;0.20;0.20;;;;;;;2.21;100.00;98486.03;5028491;28;20065;-91
2021/03/23 05:43:29;;;;;;;0.20;0.20;;;;;;;2.03;100.00;98420.59;5028887;28;20033;-91
2021/03/23 05:46:16;;;;;;;0.32;0.32;;;;;;;2.24;100.00;98453.31;5029016;28;20030;-93
2021/03/23 05:48:54;;;;;;;0.30;0.30;;;;;;;2.56;100.00;98504.41;5028540;28;20049;-93
2021/03/23 05:51:27;;;;;;;0.20;0.20;;;;;;;2.58;100.00;98482.97;5028437;28;20057;-91
2021/03/23 05:54:05;;;;;;;0.20;0.20;;;;;;;2.61;99.35;98455.69;5029101;28;20034;-91
2021/03/23 05:56:36;;;;;;;0.38;0.38;;;;;;;2.52;98.00;98438.19;5012424;28;20037;-90
2021/03/23 05:59:57;;;;;;;0.20;0.20;;;;;;;2.76;98.85;98457.28;5016302;28;20081;-92
2021/03/23 06:02:44;;;;;;;0.25;0.25;;;;;;;3.21;98.41;98496.59;5013860;28;20042;-91
2021/03/23 06:05:26;;;;;;;0.28;0.28;;;;;;;3.23;97.04;98498.94;5031925;28;20057;-91
2021/03/23 06:07:52;;;;;;;1.15;1.15;;;;;;;3.39;95.54;98512.16;5032860;28;20532;-88
2021/03/23 06:10:21;;;;;;;0.70;0.70;;;;;;;3.29;94.88;98500.09;5032037;28;20033;-91
2021/03/23 06:13:08;;;;;;;0.60;0.60;;;;;;;3.47;94.99;98500.84;5032101;28;20034;-91
2021/03/23 06:15:43;;;;;;;1.00;1.00;;;;;;;3.33;95.38;98467.31;5032024;28;20116;-87
2021/03/23 06:18:22;;;;;;;0.70;0.70;;;;;;;3.70;95.07;98508.59;5015526;28;20036;-89
2021/03/23 06:21:12;;;;;;;0.60;0.60;;;;;;;3.68;93.33;98519.13;5032589;28;20096;-86
2021/03/23 06:23:58;;;;;;;0.68;0.68;;;;;;;3.69;94.33;98510.53;5014395;28;20041;-88
2021/03/23 06:27:03;;;;;;;0.45;0.45;;;;;;;3.78;93.83;98509.34;5032252;28;20049;-87
2021/03/23 06:29:35;;;;;;;0.40;0.40;;;;;;;3.89;93.04;98508.13;5031832;28;20022;-89
2021/03/23 06:32:41;;;;;;;0.25;0.25;;;;;;;3.98;92.43;98500.28;5031395;28;20033;-86
2021/03/23 06:35:12;;;;;;;0.22;0.22;;;;;;;3.95;91.49;98483.91;5031466;28;20049;-88
2021/03/23 06:37:40;;;;;;;0.30;0.30;;;;;;;4.07;92.09;98508.84;5015297;28;20073;-86
2021/03/23 06:40:10;;;;;;;;;;;;;;;4.04;91.53;98514.31;5031846;28;20030;-87
2021/03/23 06:42:42;;;;;;;0.43;0.43;;;;;;;3.77;91.34;98469.53;5014931;28;20403;-85
2021/03/23 06:45:08;;;;;;;0.40;0.40;;;;;;;4.30;91.90;98518.47;5031282;28;20040;-90
2021/03/23 06:47:37;;;;;;;0.73;0.73;;;;;;;4.26;90.37;98468.50;5031419;28;20022;-86
2021/03/23 06:50:21;;;;;;;0.10;0.10;;;;;;;5.00;87.12;98511.00;5014797;28;20117;-89
2021/03/23 06:53:06;;;;;;;0.77;0.77;;;;;;;4.91;87.18;98498.53;5031045;28;20030;-88
2021/03/23 06:55:32;;;;;;;0.20;0.20;;;;;;;5.04;87.00;98498.03;5014564;28;20038;-89
2021/03/23 06:57:58;;;;;;;0.20;0.20;;;;;;;5.46;84.79;98483.94;5014410;28;20022;-89
2021/03/23 07:00:35;;;;;;;0.20;0.20;;;;;;;6.37;82.51;98516.97;5030750;28;20025;-86
2021/03/23 07:03:23;;;;;;;0.20;0.20;;;;;;;6.53;80.98;98522.59;5031083;28;20107;-85
2021/03/23 07:05:48;;;;;;;1.02;0.45;;;;;;;7.24;79.12;98526.22;5030457;28;20056;-86
2021/03/23 07:08:13;;;;;;;0.32;0.32;;;;;;;8.31;74.51;98536.03;5030500;28;20025;-83
2021/03/23 07:11:06;;;;;;;0.20;0.20;;;;;;;8.72;73.37;98538.28;5030752;28;20095;-82
2021/03/23 07:13:34;;;;;;;1.75;0.68;;;;;;;9.18;72.33;98537.97;5024265;28;20490;-82
2021/03/23 07:16:12;;;;;;;0.20;0.20;;;;;;;9.59;68.87;98495.19;5030263;28;20099;-81
2021/03/23 07:18:40;;;;;;;0.20;0.20;;;;;;;10.83;63.81;98530.28;5030594;28;20517;-81
2021/03/23 07:21:26;;;;;;;0.20;0.20;;;;;;;11.12;62.94;98536.47;5014037;28;20034;-80
2021/03/23 07:24:21;;;;;;;0.20;0.20;;;;;;;12.43;59.23;98545.00;5030747;28;20120;-80
2021/03/23 07:26:57;;;;;;;0.20;0.20;;;;;;;11.25;61.31;98508.81;5030717;28;20026;-80
2021/03/23 07:29:25;;;;;;;0.20;0.20;;;;;;;11.21;61.29;98511.66;5030354;28;20068;-82
2021/03/23 07:31:50;;;;;;;0.20;0.20;;;;;;;10.77;64.03;98519.03;5030630;28;20037;-82
2021/03/23 07:34:25;;;;;;;0.52;0.52;;;;;;;10.63;62.74;98549.84;5030456;28;20157;-81
2021/03/23 07:36:59;;;;;;;0.60;0.52;;;;;;;8.98;66.72;98462.91;5030278;28;20034;-80
2021/03/23 07:39:40;;;;;;;0.28;0.28;;;;;;;8.75;66.61;98504.38;5013801;28;20121;-80
2021/03/23 07:42:27;;;;;;;0.25;0.25;;;;;;;8.18;69.22;98511.09;5030024;28;20030;-80
2021/03/23 07:45:00;;;;;;;0.80;0.68;;;;;;;7.65;71.22;98523.94;5028425;28;20497;-83
2021/03/23 07:47:35;;;;;;;0.20;0.20;;;;;;;7.25;73.41;98547.78;5011401;28;20025;-83
2021/03/23 07:50:24;;;;;;;0.30;0.30;;;;;;;6.85;71.33;98554.31;5027752;28;20026;-85
2021/03/23 07:52:53;;;;;;;0.30;0.30;;;;;;;6.23;73.67;98503.41;5028188;28;20033;-86
2021/03/23 07:55:25;;;;;;;0.22;0.22;;;;;;;6.07;74.68;98511.47;5029250;28;20083;-84
2021/03/23 07:57:53;;;;;;;1.75;1.58;;;;;;;5.88;77.40;98517.56;5013719;28;20505;-85
2021/03/23 08:00:30;;;;;;;0.52;0.52;;;;;;;5.56;76.21;98491.25;5030034;28;20025;-83
2021/03/23 08:03:43;;;;;;;0.40;0.40;;;;;;;5.70;75.09;98554.16;5030026;28;20030;-86
2021/03/23 08:06:25;;;;;;;0.63;0.63;;;;;;;5.26;76.73;98513.09;5004374;28;20045;-86
2021/03/23 08:09:19;;;;;;;0.22;0.22;;;;;;;4.94;77.51;98479.75;5029918;28;20018;-86
2021/03/23 08:12:11;;;;;;;0.40;0.40;;;;;;;5.06;76.44;98509.38;5030152;28;20040;-86
2021/03/23 08:15:05;;;;;;;0.30;0.30;;;;;;;4.95;78.47;98492.22;5029865;28;20025;-85
2021/03/23 08:18:01;;;;;;;0.30;0.30;;;;;;;5.36;75.38;98574.47;5029308;28;20038;-85
2021/03/23 08:20:36;;;;;;;0.55;0.55;;;;;;;5.82;77.65;98544.63;5029345;28;20084;-84
2021/03/23 08:23:13;;;;;;;0.82;0.82;;;;;;;5.79;75.87;98498.09;5029470;28;20045;-83
2021/03/23 08:25:55;;;;;;;0.30;0.30;;;;;;;6.31;73.59;98476.69;5029619;28;20030;-82
2021/03/23 08:28:49;;;;;;;1.02;1.02;;;;;;;6.71;72.27;98508.63;5013264;28;20042;-83
2021/03/23 08:31:43;;;;;;;0.63;0.63;;;;;;;7.25;71.74;98512.06;5029385;28;20083;-82
2021/03/23 08:34:12;;;;;;;1.95;1.85;;;;;;;7.66;69.24;98491.69;5029150;28;20030;-81
2021/03/23 08:37:03;;;;;;;0.20;0.20;;;;;;;7.66;67.03;98544.72;5029505;28;20549;-83
2021/03/23 08:40:07;;;;;;;0.20;0.20;;;;;;;7.78;68.50;98537.81;5029344;28;20025;-81
2021/03/23 08:42:33;;;;;;;0.68;0.68;;;;;;;7.66;67.72;98486.97;5000508;28;20038;-81
2021/03/23 08:44:58;;;;;;;0.80;0.80;;;;;;;8.00;68.77;98503.22;5028891;28;20410;-80
2021/03/23 08:47:37;;;;;;;0.20;0.20;;;;;;;8.14;64.59;98502.91;5028618;28;20028;-79
2021/03/23 08:50:20;;;;;;;0.63;0.63;;;;;;;7.64;69.51;98502.34;5029818;28;20156;-82
2021/03/23 08:52:54;;;;;;;0.57;0.57;;;;;;;7.79;66.17;98500.88;5029650;28;20037;-81
2021/03/23 08:55:33;;;;;;;1.00;1.00;;;;;;;7.84;66.50;98499.59;5029639;28;20053;-85
2021/03/23 08:58:13;;;;;;;0.28;0.28;;;;;;;7.30;68.18;98497.84;5028904;28;20108;-85
2021/03/23 09:00:53;;;;;;;0.30;0.30;;;;;;;7.78;65.94;98513.06;5012945;28;20025;-82
2021/03/23 09:03:19;;;;;;;0.20;0.20;;;;;;;8.31;65.41;98530.53;5012735;28;20471;-81
2021/03/23 09:05:50;;;;;;;0.73;0.73;;;;;;;8.10;66.09;98468.41;5028379;28;20049;-81
2021/03/23 09:08:24;;;;;;;2.53;2.17;;;;;;;8.77;66.49;98540.53;5028564;28;20437;-80
2021/03/23 09:11:01;;;;;;;0.30;0.30;;;;;;;9.12;64.31;98536.94;5028577;28;20042;-81
2021/03/23 09:13:36;;;;;;;0.90;0.83;;;;;;;9.12;64.08;98464.50;5028741;28;20453;-80
2021/03/23 09:16:10;;;;;;;0.30;0.30;;;;;;;9.22;63.64;98457.97;5028553;28;20072;-80
2021/03/23 09:18:38;;;;;;;0.25;0.25;;;;;;;10.55;61.23;98477.44;5028554;28;20037;-80
2021/03/23 09:21:10;;;;;;;0.20;0.20;;;;;;;10.92;58.10;98478.66;5028658;28;20448;-80
2021/03/23 09:23:43;;;;;;;2.38;0.40;;;;;;;10.92;57.47;98451.00;5012064;28;20072;-80
2021/03/23 09:26:30;;;;;;;0.77;0.45;;;;;;;10.57;60.38;98508.19;5011940;28;20034;-80
2021/03/23 09:28:58;;;;;;;0.22;0.22;;;;;;;10.55;58.76;98488.50;5028540;28;20036;-81
2021/03/23 09:31:29;;;;;;;1.03;1.03;;;;;;;10.11;60.48;98504.00;5028660;28;20411;-80
2021/03/23 09:33:58;;;;;;;0.50;0.50;;;;;;;9.33;58.95;98450.97;5032937;28;20257;-81
2021/03/23 09:36:42;;;;;;;1.10;0.70;;;;;;;9.75;58.30;98506.19;5032907;28;20115;-80
2021/03/23 09:39:17;;;;;;;1.00;0.98;;;;;;;8.92;62.56;98432.31;5016521;28;20048;-80
2021/03/23 09:42:12;;;;;;;0.45;0.45;;;;;;;9.39;60.82;98476.03;5032456;28;20026;-79
2021/03/23 09:44:45;;;;;;;0.52;0.52;;;;;;;9.24;60.13;98464.59;5016127;28;20089;-80
2021/03/23 09:48:01;;;;;;;0.57;0.57;;;;;;;9.59;61.75;98487.69;5016368;28;20124;-81
2021/03/23 09:50:29;;;;;;;0.75;0.75;;;;;;;9.62;61.72;98497.88;4975654;28;20515;-79
2021/03/23 09:53:07;;;;;;;0.50;0.50;;;;;;;9.06;62.94;98435.91;5009264;28;20045;-80
2021/03/23 09:55:32;;;;;;;1.73;1.63;;;;;;;9.32;61.05;98471.47;5031879;28;20030;-79
2021/03/23 09:57:58;;;;;;;0.52;0.52;;;;;;;9.33;61.25;98483.28;5031779;28;20030;-81
2021/03/23 10:00:33;;;;;;;0.98;0.63;;;;;;;9.23;61.43;98456.72;5015158;28;20064;-80
2021/03/23 10:02:59;;;;;;;0.47;0.47;;;;;;;8.77;61.36;98438.63;5015187;28;20033;-80
2021/03/23 10:05:29;;;;;;;0.20;0.20;;;;;;;8.77;63.61;98453.16;5014337;28;20057;-81
2021/03/23 10:08:14;;;;;;;0.63;0.63;;;;;;;8.11;62.73;98431.44;5014905;28;20026;-81
2021/03/23 10:10:40;;;;;;;0.73;0.73;;;;;;;8.54;63.35;98483.63;5031740;28;20113;-79
2021/03/23 10:13:27;;;;;;;0.82;0.82;;;;;;;8.50;66.07;98444.34;5014968;28;20466;-80
2021/03/23 10:15:54;;;;;;;0.47;0.47;;;;;;;8.37;65.08;98402.22;5031347;28;20030;-80
2021/03/23 10:18:26;;;;;;;0.63;0.63;;;;;;;8.72;65.30;98459.19;5014584;28;20057;-80
2021/03/23 10:21:09;;;;;;;0.98;0.95;;;;;;;8.45;64.37;98420.88;5014865;28;20029;-81
2021/03/23 10:23:43;;;;;;;1.17;1.15;;;;;;;9.08;65.27;98436.28;5014541;28;20029;-85
2021/03/23 10:26:09;;;;;;;0.65;0.57;;;;;;;9.23;68.53;98434.69;5031207;28;20034;-80
2021/03/23 10:28:48;;;;;;;0.35;0.35;;;;;;;9.28;64.66;98414.88;5014626;28;20410;-80
2021/03/23 10:31:15;;;;;;;0.82;0.82;;;;;;;9.32;65.39;98404.53;5031213;28;20477;-81
2021/03/23 10:33:42;;;;;;;0.30;0.30;;;;;;;9.68;66.31;98380.25;5014678;28;20152;-81
2021/03/23 10:36:13;;;;;;;0.38;0.38;;;;;;;10.02;63.66;98412.00;5031596;28;20155;-81
2021/03/23 10:38:43;;;;;;;1.65;0.50;;;;;;;10.08;62.77;98408.25;5031073;28;20030;-78
2021/03/23 10:41:17;;;;;;;0.50;0.50;;;;;;;9.09;60.62;98427.56;5030970;28;20054;-83
2021/03/23 10:43:44;;;;;;;0.30;0.30;;;;;;;8.58;59.83;98435.50;5030401;28;20026;-81
2021/03/23 10:46:38;;;;;;;0.90;0.90;;;;;;;8.44;61.16;98437.81;5030848;28;20045;-81
2021/03/23 10:49:28;;;;;;;0.28;0.28;;;;;;;8.29;62.13;98442.84;5014705;28;20417;-83
2021/03/23 10:52:06;;;;;;;3.60;3.40;;;;;;;7.80;60.84;98403.41;5030840;28;20072;-84
2021/03/23 10:54:38;;;;;;;5.05;4.65;;;;;;;8.35;61.31;98446.66;5030896;28;20030;-83
2021/03/23 10:57:33;;;;;;;5.88;5.32;;;;;;;8.33;59.92;98438.06;5031047;28;20045;-85
2021/03/23 11:00:28;;;;;;;0.52;0.52;;;;;;;8.38;61.20;98431.28;5030436;28;20057;-83
2021/03/23 11:03:10;;;;;;;1.40;1.35;;;;;;;8.56;59.18;98450.91;5014609;28;20036;-83
2021/03/23 11:05:43;;;;;;;4.63;4.20;;;;;;;8.16;58.81;98395.94;5030148;28;20060;-85
2021/03/23 11:08:12;;;;;;;11.45;10.27;;;;;;;8.08;58.09;98429.53;5030498;28;20025;-86
2021/03/23 11:10:37;;;;;;;8.35;4.40;;;;;;;8.04;60.72;98402.13;5030422;28;20066;-87
2021/03/23 11:13:02;;;;;;;12.55;3.17;;;;;;;8.18;59.16;98428.56;5030392;28;20037;-88
2021/03/23 11:15:39;;;;;;;1.42;1.35;;;;;;;7.95;57.33;98401.16;5030423;28;20038;-85
2021/03/23 11:18:45;;;;;;;2.67;2.17;;;;;;;8.24;59.09;98437.06;5014225;28;20038;-85
2021/03/23 11:21:15;;;;;;;0.52;0.52;;;;;;;7.47;60.51;98385.28;5030702;28;20640;-85
2021/03/23 11:23:46;;;;;;;0.20;0.20;;;;;;;7.40;62.40;98390.91;5013700;28;20041;-86
2021/03/23 11:26:17;;;;;;;0.77;0.77;;;;;;;7.24;61.80;98386.09;5013461;28;20030;-85
2021/03/23 11:28:45;;;;;;;14.10;8.80;;;;;;;7.09;60.59;98415.81;5029830;28;20113;-88
2021/03/23 11:31:12;;;;;;;2.13;2.03;;;;;;;6.90;62.72;98365.13;5029727;28;20038;-86
2021/03/23 11:33:38;;;;;;;2.28;2.17;;;;;;;7.21;62.53;98434.44;5030362;28;20125;-86
2021/03/23 11:36:05;;;;;;;1.63;1.48;;;;;;;7.04;59.04;98463.00;5013808;28;20479;-87
2021/03/23 11:38:31;;;;;;;1.85;1.17;;;;;;;6.93;60.86;98448.66;5030231;28;20029;-86
2021/03/23 11:40:58;;;;;;;0.85;0.85;;;;;;;6.44;61.61;98392.59;5013831;28;20152;-87
2021/03/23 11:43:38;;;;;;;0.93;0.93;;;;;;;6.60;62.00;98406.44;5030193;28;20065;-87
2021/03/23 11:46:43;;;;;;;1.02;1.02;;;;;;;6.62;63.34;98415.06;5030079;28;20088;-88
2021/03/23 11:49:18;;;;;;;1.98;1.00;;;;;;;6.27;60.95;98371.72;5012569;28;20037;-88
2021/03/23 11:51:47;;;;;;;0.60;0.60;;;;;;;6.40;59.64;98381.66;5013805;28;20478;-85
2021/03/23 11:54:13;;;;;;;1.50;1.50;;;;;;;6.70;62.15;98426.66;5029402;28;20029;-88
2021/03/23 11:56:40;;;;;;;0.68;0.68;;;;;;;6.72;61.98;98444.28;5013567;28;20034;-87
2021/03/23 11:59:05;;;;;;;2.13;2.03;;;;;;;6.67;63.63;98424.78;5030217;28;20026;-88
2021/03/23 12:01:31;;;;;;;1.10;1.00;;;;;;;6.97;62.45;98432.91;5030105;28;20386;-87
2021/03/23 12:03:57;;;;;;;3.95;3.70;;;;;;;7.03;62.48;98433.19;5029703;28;20045;-87
2021/03/23 12:06:37;;;;;;;1.35;1.35;;;;;;;7.00;61.29;98418.31;5013217;28;20057;-88